createdAt,value
2023-05-21T00:00:46.239Z,34.47
2023-05-21T00:01:46.230Z,34.43
2023-05-21T00:02:46.273Z,34.48
2023-05-21T00:03:46.346Z,34.47
2023-05-21T00:04:46.189Z,34.53
2023-05-21T00:05:46.220Z,34.48
2023-05-21T00:06:46.188Z,34.48
2023-05-21T00:07:46.177Z,34.52
2023-05-21T00:08:46.174Z,34.48
2023-05-21T00:09:46.171Z,34.52
2023-05-21T00:10:46.164Z,34.51
2023-05-21T00:11:46.172Z,34.54
2023-05-21T00:12:46.146Z,34.54
2023-05-21T00:13:46.145Z,34.56
2023-05-21T00:14:46.157Z,34.57
2023-05-21T00:15:46.133Z,34.59
2023-05-21T00:16:46.203Z,34.56
2023-05-21T00:17:46.192Z,34.57
2023-05-21T00:18:46.101Z,34.59
2023-05-21T00:19:46.093Z,34.61
2023-05-21T00:20:46.105Z,34.64
2023-05-21T00:21:46.069Z,34.62
2023-05-21T00:22:46.070Z,34.62
2023-05-21T00:23:46.068Z,34.60
2023-05-21T00:24:46.061Z,34.60
2023-05-21T00:25:46.056Z,34.66
2023-05-21T00:26:46.061Z,34.66
2023-05-21T00:27:46.115Z,34.65
2023-05-21T00:28:46.171Z,34.68
2023-05-21T00:29:46.231Z,34.65
2023-05-21T00:30:46.301Z,34.60
2023-05-21T00:31:46.411Z,34.68
2023-05-21T00:32:46.488Z,34.66
2023-05-21T00:33:46.500Z,34.66
2023-05-21T00:34:46.560Z,34.66
2023-05-21T00:35:46.620Z,34.70
2023-05-21T00:36:46.672Z,34.69
2023-05-21T00:37:46.737Z,34.69
2023-05-21T00:38:46.790Z,34.69
2023-05-21T00:39:46.857Z,34.74
2023-05-21T00:40:46.943Z,34.73
2023-05-21T00:41:46.978Z,34.71
2023-05-21T00:42:47.047Z,34.73
2023-05-21T00:43:47.102Z,34.70
2023-05-21T00:44:47.156Z,34.79
2023-05-21T00:45:47.273Z,34.77
2023-05-21T00:46:47.286Z,34.77
2023-05-21T00:47:47.418Z,34.78
2023-05-21T00:48:47.396Z,34.75
2023-05-21T00:49:47.466Z,34.80
2023-05-21T00:50:47.523Z,34.79
2023-05-21T00:51:47.595Z,34.81
2023-05-21T00:52:47.650Z,34.79
2023-05-21T00:53:47.716Z,34.83
2023-05-21T00:54:47.772Z,34.75
2023-05-21T00:55:47.828Z,34.81
2023-05-21T00:56:47.886Z,34.79
2023-05-21T00:57:47.958Z,34.79
2023-05-21T00:58:48.024Z,34.79
2023-05-21T00:59:48.076Z,34.86
2023-05-21T01:00:48.138Z,34.85
2023-05-21T01:01:48.228Z,34.85
2023-05-21T01:02:48.398Z,34.88
2023-05-21T01:03:48.357Z,34.84
2023-05-21T01:04:48.375Z,34.87
2023-05-21T01:05:48.429Z,34.87
2023-05-21T01:06:48.484Z,34.87
2023-05-21T01:07:48.544Z,34.88
2023-05-21T01:08:48.587Z,34.90
2023-05-21T01:09:48.650Z,34.90
2023-05-21T01:10:48.726Z,34.88
2023-05-21T01:11:48.781Z,34.90
2023-05-21T01:12:48.854Z,34.93
2023-05-21T01:13:48.898Z,34.88
2023-05-21T01:14:48.965Z,34.92
2023-05-21T01:15:49.021Z,34.93
2023-05-21T01:16:49.112Z,34.93
2023-05-21T01:17:49.199Z,34.92
2023-05-21T01:18:49.257Z,34.95
2023-05-21T01:19:49.387Z,34.96
2023-05-21T01:20:49.384Z,34.96
2023-05-21T01:21:49.420Z,34.97
2023-05-21T01:22:49.457Z,34.93
2023-05-21T01:23:49.525Z,34.96
2023-05-21T01:24:49.602Z,34.95
2023-05-21T01:25:49.659Z,34.97
2023-05-21T01:26:49.703Z,34.92
2023-05-21T01:27:49.770Z,35.00
2023-05-21T01:28:49.810Z,35.01
2023-05-21T01:29:49.863Z,35.00
2023-05-21T01:30:49.978Z,34.97
2023-05-21T01:31:49.997Z,34.99
2023-05-21T01:32:50.156Z,34.98
2023-05-21T01:33:50.121Z,35.00
2023-05-21T01:34:50.152Z,35.01
2023-05-21T01:35:50.204Z,34.98
2023-05-21T01:36:50.239Z,35.05
2023-05-21T01:37:50.293Z,34.96
2023-05-21T01:38:50.336Z,35.05
2023-05-21T01:39:50.405Z,35.04
2023-05-21T01:40:50.480Z,35.06
2023-05-21T01:41:50.536Z,35.01
2023-05-21T01:42:50.590Z,35.08
2023-05-21T01:43:50.640Z,35.05
2023-05-21T01:44:50.722Z,35.05
2023-05-21T01:45:50.757Z,35.04
2023-05-21T01:46:50.918Z,35.04
2023-05-21T01:47:50.866Z,35.10
2023-05-21T01:48:50.936Z,35.09
2023-05-21T01:49:50.986Z,35.08
2023-05-21T01:50:51.056Z,35.10
2023-05-21T01:51:51.106Z,35.08
2023-05-21T01:52:51.172Z,35.09
2023-05-21T01:54:36.677Z,35.11
2023-05-21T01:55:36.801Z,35.10
2023-05-21T01:56:36.655Z,35.10
2023-05-21T01:57:36.664Z,35.12
2023-05-21T01:58:36.709Z,35.13
2023-05-21T01:59:36.757Z,35.13
2023-05-21T02:00:36.827Z,35.15
2023-05-21T02:01:36.935Z,35.11
2023-05-21T02:02:37.028Z,35.14
2023-05-21T02:03:37.204Z,35.14
2023-05-21T02:04:37.081Z,35.15
2023-05-21T02:05:37.405Z,35.15
2023-05-21T02:06:37.200Z,35.15
2023-05-21T02:07:37.250Z,35.15
2023-05-21T02:08:37.291Z,35.15
2023-05-21T02:09:37.356Z,35.15
2023-05-21T02:10:37.414Z,35.15
2023-05-21T02:11:37.464Z,35.14
2023-05-21T02:12:37.547Z,35.18
2023-05-21T02:13:37.579Z,35.16
2023-05-21T02:14:37.651Z,35.19
2023-05-21T02:15:37.794Z,35.18
2023-05-21T02:16:37.910Z,35.22
2023-05-21T02:17:37.826Z,35.16
2023-05-21T02:18:37.859Z,35.19
2023-05-21T02:19:37.906Z,35.19
2023-05-21T02:20:37.959Z,35.23
2023-05-21T02:21:37.994Z,35.23
2023-05-21T02:22:38.036Z,35.20
2023-05-21T02:23:38.099Z,35.23
2023-05-21T02:24:38.114Z,35.20
2023-05-21T02:25:38.469Z,35.22
2023-05-21T02:26:38.180Z,35.23
2023-05-21T02:27:38.236Z,35.24
2023-05-21T02:28:38.278Z,35.24
2023-05-21T02:29:38.308Z,35.23
2023-05-21T02:30:38.356Z,35.26
2023-05-21T02:31:38.402Z,35.30
2023-05-21T02:32:38.532Z,35.25
2023-05-21T02:33:38.511Z,35.24
2023-05-21T02:34:38.552Z,35.27
2023-05-21T02:35:38.734Z,35.27
2023-05-21T02:36:38.650Z,35.24
2023-05-21T02:37:38.681Z,35.25
2023-05-21T02:38:38.702Z,35.28
2023-05-21T02:39:38.754Z,35.23
2023-05-21T02:40:38.788Z,35.28
2023-05-21T02:41:38.827Z,35.25
2023-05-21T02:42:38.883Z,35.28
2023-05-21T02:43:38.921Z,35.31
2023-05-21T02:44:38.948Z,35.27
2023-05-21T02:45:39.226Z,35.31
2023-05-21T02:46:38.996Z,35.28
2023-05-21T02:47:39.167Z,35.30
2023-05-21T02:48:39.034Z,35.27
2023-05-21T02:49:39.083Z,35.28
2023-05-21T02:50:39.130Z,35.29
2023-05-21T02:51:39.161Z,35.28
2023-05-21T02:52:39.209Z,35.29
2023-05-21T02:53:39.245Z,35.28
2023-05-21T02:54:39.282Z,35.34
2023-05-21T02:55:39.444Z,35.36
2023-05-21T02:56:39.334Z,35.36
2023-05-21T02:57:39.352Z,35.34
2023-05-21T02:58:39.424Z,35.33
2023-05-21T02:59:39.433Z,35.34
2023-05-21T03:00:39.460Z,35.30
2023-05-21T03:01:39.511Z,35.34
2023-05-21T03:02:39.637Z,35.41
2023-05-21T03:03:39.637Z,35.38
2023-05-21T03:04:39.635Z,35.40
2023-05-21T03:05:39.691Z,35.40
2023-05-21T03:06:39.721Z,35.40
2023-05-21T03:07:39.767Z,35.36
2023-05-21T03:08:39.812Z,35.40
2023-05-21T03:09:39.876Z,35.42
2023-05-21T03:10:39.920Z,35.41
2023-05-21T03:11:39.957Z,35.37
2023-05-21T03:12:39.979Z,35.40
2023-05-21T03:13:40.085Z,35.42
2023-05-21T03:14:40.050Z,35.38
2023-05-21T03:15:40.064Z,35.38
2023-05-21T03:16:40.137Z,35.47
2023-05-21T03:17:40.193Z,35.42
2023-05-21T03:18:40.164Z,35.42
2023-05-21T03:19:40.191Z,35.40
2023-05-21T03:20:40.230Z,35.42
2023-05-21T03:21:40.265Z,35.42
2023-05-21T03:22:40.312Z,35.44
2023-05-21T03:23:40.325Z,35.38
2023-05-21T03:24:40.345Z,35.42
2023-05-21T03:25:40.383Z,35.45
2023-05-21T03:26:40.416Z,35.46
2023-05-21T03:27:40.497Z,35.40
2023-05-21T03:28:40.483Z,35.46
2023-05-21T03:29:40.526Z,35.41
2023-05-21T03:30:40.569Z,35.46
2023-05-21T03:31:40.644Z,35.43
2023-05-21T03:32:40.644Z,35.46
2023-05-21T03:33:40.686Z,35.42
2023-05-21T03:34:40.747Z,35.43
2023-05-21T03:35:40.772Z,35.49
2023-05-21T03:36:40.808Z,35.46
2023-05-21T03:37:40.825Z,35.50
2023-05-21T03:38:40.851Z,35.49
2023-05-21T03:39:40.866Z,35.45
2023-05-21T03:40:40.979Z,35.49
2023-05-21T03:41:40.898Z,35.46
2023-05-21T03:42:40.912Z,35.45
2023-05-21T03:43:40.929Z,35.46
2023-05-21T03:44:40.958Z,35.46
2023-05-21T03:45:42.787Z,35.47
2023-05-21T03:46:41.022Z,35.47
2023-05-21T03:47:41.029Z,35.52
2023-05-21T03:48:41.002Z,35.51
2023-05-21T03:49:40.978Z,35.49
2023-05-21T03:50:40.971Z,35.49
2023-05-21T03:51:40.961Z,35.47
2023-05-21T03:52:40.965Z,35.50
2023-05-21T03:53:40.955Z,35.49
2023-05-21T03:54:40.944Z,35.46
2023-05-21T03:55:40.945Z,35.46
2023-05-21T03:56:40.945Z,35.46
2023-05-21T03:57:40.919Z,35.45
2023-05-21T03:58:40.904Z,35.45
2023-05-21T03:59:40.913Z,35.45
2023-05-21T04:00:40.917Z,35.49
2023-05-21T04:01:40.918Z,35.47
2023-05-21T04:02:40.994Z,35.45
2023-05-21T04:03:41.278Z,35.45
2023-05-21T04:04:40.917Z,35.47
2023-05-21T04:05:40.869Z,35.49
2023-05-21T04:06:40.860Z,35.45
2023-05-21T04:07:40.875Z,35.46
2023-05-21T04:08:40.852Z,35.45
2023-05-21T04:09:40.833Z,35.49
2023-05-21T04:10:40.825Z,35.39
2023-05-21T04:11:40.880Z,35.46
2023-05-21T04:12:40.840Z,35.41
2023-05-21T04:13:40.809Z,35.44
2023-05-21T04:14:40.801Z,35.46
2023-05-21T04:15:40.819Z,35.46
2023-05-21T04:16:40.800Z,35.41
2023-05-21T04:17:40.839Z,35.47
2023-05-21T04:18:41.117Z,35.38
2023-05-21T04:19:40.802Z,35.39
2023-05-21T04:20:40.786Z,35.45
2023-05-21T04:21:40.756Z,35.37
2023-05-21T04:22:40.746Z,35.39
2023-05-21T04:23:40.738Z,35.40
2023-05-21T04:24:40.738Z,35.40
2023-05-21T04:25:40.729Z,35.39
2023-05-21T04:26:40.717Z,35.43
2023-05-21T04:27:40.729Z,35.38
2023-05-21T04:28:40.707Z,35.39
2023-05-21T04:29:40.704Z,35.36
2023-05-21T04:30:40.700Z,35.35
2023-05-21T04:31:40.713Z,35.37
2023-05-21T04:32:40.735Z,35.33
2023-05-21T04:33:40.675Z,35.39
2023-05-21T04:34:40.670Z,35.37
2023-05-21T04:35:40.670Z,35.37
2023-05-21T04:36:40.714Z,35.37
2023-05-21T04:37:40.701Z,35.35
2023-05-21T04:38:40.728Z,35.32
2023-05-21T04:39:40.788Z,35.32
2023-05-21T04:40:40.854Z,35.29
2023-05-21T04:41:40.886Z,35.28
2023-05-21T04:42:40.944Z,35.29
2023-05-21T04:43:41.008Z,35.26
2023-05-21T04:44:41.045Z,35.26
2023-05-21T04:45:41.116Z,35.25
2023-05-21T04:46:42.000Z,35.21
2023-05-21T04:47:41.257Z,35.17
2023-05-21T04:48:41.296Z,35.17
2023-05-21T04:49:41.340Z,35.13
2023-05-21T04:50:41.477Z,35.08
2023-05-21T04:51:41.467Z,35.01
2023-05-21T04:52:41.539Z,34.94
2023-05-21T04:53:41.579Z,34.80
2023-05-21T04:54:41.628Z,34.59
2023-05-21T04:55:41.688Z,34.43
2023-05-21T04:56:41.709Z,34.08
2023-05-21T04:57:41.740Z,33.87
2023-05-21T04:58:41.746Z,33.51
2023-05-21T04:59:41.722Z,33.22
2023-05-21T05:00:41.836Z,32.84
2023-05-21T05:01:41.826Z,32.63
2023-05-21T05:02:41.909Z,32.55
2023-05-21T05:03:41.932Z,32.55
2023-05-21T05:04:41.956Z,32.67
2023-05-21T05:05:42.028Z,32.71
2023-05-21T05:06:42.029Z,32.75
2023-05-21T05:07:42.064Z,32.83
2023-05-21T05:08:42.136Z,32.90
2023-05-21T05:09:42.201Z,32.97
2023-05-21T05:10:42.247Z,33.06
2023-05-21T05:11:42.250Z,33.14
2023-05-21T05:12:42.245Z,33.17
2023-05-21T05:13:42.254Z,33.29
2023-05-21T05:14:42.240Z,33.30
2023-05-21T05:15:42.240Z,33.39
2023-05-21T05:16:42.259Z,33.47
2023-05-21T05:17:42.340Z,33.51
2023-05-21T05:18:42.291Z,33.49
2023-05-21T05:19:42.247Z,33.55
2023-05-21T05:20:42.255Z,33.60
2023-05-21T05:21:42.273Z,33.63
2023-05-21T05:22:42.264Z,33.62
2023-05-21T05:23:42.261Z,33.66
2023-05-21T05:24:42.269Z,33.70
2023-05-21T05:25:42.275Z,33.74
2023-05-21T05:26:42.287Z,33.77
2023-05-21T05:27:42.290Z,33.75
2023-05-21T05:28:42.304Z,33.77
2023-05-21T05:29:42.313Z,33.81
2023-05-21T05:30:42.325Z,33.82
2023-05-21T05:31:42.310Z,33.80
2023-05-21T05:32:42.356Z,33.79
2023-05-21T05:33:42.335Z,33.78
2023-05-21T05:34:42.320Z,33.81
2023-05-21T05:35:42.335Z,33.84
2023-05-21T05:36:42.325Z,33.85
2023-05-21T05:37:42.335Z,33.86
2023-05-21T05:38:42.328Z,33.86
2023-05-21T05:39:42.330Z,33.92
2023-05-21T05:40:42.339Z,33.86
2023-05-21T05:41:42.336Z,33.81
2023-05-21T05:42:42.327Z,33.83
2023-05-21T05:43:42.330Z,33.83
2023-05-21T05:44:42.340Z,33.84
2023-05-21T05:45:42.344Z,33.81
2023-05-21T05:46:42.435Z,33.81
2023-05-21T05:47:42.428Z,33.80
2023-05-21T05:48:42.342Z,33.81
2023-05-21T05:49:42.335Z,33.76
2023-05-21T05:50:42.312Z,33.72
2023-05-21T05:51:42.312Z,33.74
2023-05-21T05:52:42.308Z,33.71
2023-05-21T05:53:42.302Z,33.71
2023-05-21T05:54:42.310Z,33.70
2023-05-21T05:55:42.294Z,33.64
2023-05-21T05:56:42.319Z,33.69
2023-05-21T05:57:44.843Z,33.63
2023-05-21T05:58:42.325Z,33.61
2023-05-21T05:59:42.317Z,33.63
2023-05-21T06:00:42.319Z,33.65
2023-05-21T06:01:42.315Z,33.65
2023-05-21T06:02:42.405Z,33.61
2023-05-21T06:03:42.468Z,33.64
2023-05-21T06:04:42.293Z,33.58
2023-05-21T06:05:42.290Z,33.53
2023-05-21T06:06:42.278Z,33.50
2023-05-21T06:07:42.271Z,33.53
2023-05-21T06:08:42.271Z,33.49
2023-05-21T06:09:42.255Z,33.53
2023-05-21T06:10:42.242Z,33.57
2023-05-21T06:11:42.229Z,33.54
2023-05-21T06:12:42.231Z,33.53
2023-05-21T06:13:42.228Z,33.60
2023-05-21T06:14:44.422Z,33.57
2023-05-21T06:15:42.242Z,33.52
2023-05-21T06:16:42.217Z,33.52
2023-05-21T06:17:42.247Z,33.61
2023-05-21T06:18:42.232Z,33.48
2023-05-21T06:19:42.170Z,33.43
2023-05-21T06:20:42.180Z,33.43
2023-05-21T06:21:42.173Z,33.38
2023-05-21T06:22:42.154Z,33.39
2023-05-21T06:23:42.153Z,33.38
2023-05-21T06:24:42.148Z,33.32
2023-05-21T06:25:42.143Z,33.25
2023-05-21T06:26:42.156Z,33.27
2023-05-21T06:27:42.115Z,33.17
2023-05-21T06:28:42.105Z,33.12
2023-05-21T06:29:42.093Z,33.11
2023-05-21T06:30:42.116Z,33.04
2023-05-21T06:31:42.093Z,32.97
2023-05-21T06:32:42.155Z,32.93
2023-05-21T06:33:42.166Z,32.90
2023-05-21T06:34:42.082Z,32.87
2023-05-21T06:35:42.066Z,32.92
2023-05-21T06:36:42.077Z,32.84
2023-05-21T06:37:42.069Z,32.89
2023-05-21T06:38:42.036Z,32.88
2023-05-21T06:39:42.048Z,32.91
2023-05-21T06:40:42.042Z,32.92
2023-05-21T06:41:42.015Z,32.88
2023-05-21T06:42:42.011Z,32.92
2023-05-21T06:43:42.008Z,32.94
2023-05-21T06:44:42.009Z,32.91
2023-05-21T06:45:42.038Z,32.98
2023-05-21T06:46:41.990Z,32.97
2023-05-21T06:47:42.028Z,33.05
2023-05-21T06:48:41.976Z,33.02
2023-05-21T06:49:41.978Z,33.05
2023-05-21T06:50:41.994Z,33.11
2023-05-21T06:51:41.952Z,33.19
2023-05-21T06:52:41.974Z,33.19
2023-05-21T06:53:41.978Z,33.23
2023-05-21T06:54:41.933Z,33.22
2023-05-21T06:55:43.012Z,33.17
2023-05-21T06:56:41.921Z,33.19
2023-05-21T06:57:41.929Z,33.22
2023-05-21T06:58:41.934Z,33.22
2023-05-21T06:59:41.909Z,33.22
2023-05-21T07:00:41.902Z,33.19
2023-05-21T07:01:41.981Z,33.23
2023-05-21T07:02:42.022Z,33.33
2023-05-21T07:03:41.977Z,33.27
2023-05-21T07:04:41.872Z,33.32
2023-05-21T07:05:41.875Z,33.33
2023-05-21T07:06:41.863Z,33.34
2023-05-21T07:07:41.844Z,33.36
2023-05-21T07:08:41.843Z,33.40
2023-05-21T07:09:41.870Z,33.40
2023-05-21T07:10:41.887Z,33.40
2023-05-21T07:11:41.925Z,33.41
2023-05-21T07:12:41.944Z,33.46
2023-05-21T07:13:41.977Z,33.41
2023-05-21T07:14:42.014Z,33.46
2023-05-21T07:15:42.028Z,33.45
2023-05-21T07:16:42.102Z,33.51
2023-05-21T07:17:42.128Z,33.49
2023-05-21T07:18:42.138Z,33.49
2023-05-21T07:19:42.148Z,33.50
2023-05-21T07:20:42.171Z,33.47
2023-05-21T07:21:42.187Z,33.53
2023-05-21T07:22:42.201Z,33.50
2023-05-21T07:23:42.220Z,33.52
2023-05-21T07:24:42.260Z,33.53
2023-05-21T07:25:42.297Z,33.54
2023-05-21T07:26:42.291Z,33.55
2023-05-21T07:27:42.300Z,33.55
2023-05-21T07:28:42.323Z,33.62
2023-05-21T07:29:42.335Z,33.54
2023-05-21T07:30:42.385Z,33.54
2023-05-21T07:31:42.398Z,33.53
2023-05-21T07:32:42.435Z,33.56
2023-05-21T07:33:42.412Z,33.59
2023-05-21T07:34:42.426Z,33.57
2023-05-21T07:35:42.459Z,33.54
2023-05-21T07:36:42.465Z,33.62
2023-05-21T07:37:42.518Z,33.63
2023-05-21T07:38:42.502Z,33.65
2023-05-21T07:39:42.554Z,33.68
2023-05-21T07:40:42.580Z,33.56
2023-05-21T07:41:42.588Z,33.66
2023-05-21T07:42:42.608Z,33.59
2023-05-21T07:43:42.636Z,33.67
2023-05-21T07:44:42.653Z,33.61
2023-05-21T07:45:42.687Z,33.64
2023-05-21T07:46:42.779Z,33.60
2023-05-21T07:47:42.766Z,33.60
2023-05-21T07:48:42.740Z,33.68
2023-05-21T07:49:42.768Z,33.63
2023-05-21T07:50:42.801Z,33.69
2023-05-21T07:51:42.799Z,33.65
2023-05-21T07:52:42.830Z,33.66
2023-05-21T07:53:42.826Z,33.63
2023-05-21T07:54:42.829Z,33.65
2023-05-21T07:55:42.866Z,33.64
2023-05-21T07:56:42.878Z,33.66
2023-05-21T07:57:42.865Z,33.63
2023-05-21T07:58:42.863Z,33.65
2023-05-21T07:59:42.873Z,33.67
2023-05-21T08:00:42.883Z,33.56
2023-05-21T08:01:42.878Z,33.60
2023-05-21T08:02:42.970Z,33.60
2023-05-21T08:03:43.000Z,33.59
2023-05-21T08:04:42.925Z,33.58
2023-05-21T08:05:42.898Z,33.55
2023-05-21T08:06:42.890Z,33.61
2023-05-21T08:07:42.893Z,33.58
2023-05-21T08:08:42.914Z,33.60
2023-05-21T08:09:42.884Z,33.61
2023-05-21T08:10:42.889Z,33.65
2023-05-21T08:11:42.918Z,33.62
2023-05-21T08:12:42.869Z,33.65
2023-05-21T08:13:42.882Z,33.68
2023-05-21T08:14:42.856Z,33.70
2023-05-21T08:15:42.893Z,33.68
2023-05-21T08:16:42.948Z,33.64
2023-05-21T08:17:42.931Z,33.68
2023-05-21T08:18:42.905Z,33.70
2023-05-21T08:19:42.857Z,33.72
2023-05-21T08:20:42.861Z,33.74
2023-05-21T08:21:42.843Z,33.74
2023-05-21T08:22:42.840Z,33.78
2023-05-21T08:23:42.834Z,33.78
2023-05-21T08:24:42.834Z,33.82
2023-05-21T08:25:42.874Z,33.74
2023-05-21T08:26:42.832Z,33.79
2023-05-21T08:27:42.845Z,33.82
2023-05-21T08:28:42.824Z,33.83
2023-05-21T08:29:42.844Z,33.79
2023-05-21T08:30:42.822Z,33.81
2023-05-21T08:31:42.876Z,33.90
2023-05-21T08:32:42.855Z,33.85
2023-05-21T08:33:42.804Z,33.91
2023-05-21T08:34:42.827Z,33.89
2023-05-21T08:35:42.814Z,33.90
2023-05-21T08:36:42.784Z,33.92
2023-05-21T08:37:42.788Z,33.89
2023-05-21T08:38:42.790Z,33.89
2023-05-21T08:39:42.787Z,33.93
2023-05-21T08:40:42.799Z,33.92
2023-05-21T08:41:42.808Z,33.93
2023-05-21T08:42:42.842Z,34.00
2023-05-21T08:43:42.841Z,33.92
2023-05-21T08:44:42.860Z,33.90
2023-05-21T08:45:42.919Z,33.96
2023-05-21T08:46:42.923Z,34.05
2023-05-21T08:47:42.933Z,34.05
2023-05-21T08:48:42.915Z,34.00
2023-05-21T08:49:42.923Z,34.02
2023-05-21T08:50:42.930Z,34.10
2023-05-21T08:51:42.993Z,34.09
2023-05-21T08:52:42.976Z,34.08
2023-05-21T08:53:42.981Z,34.11
2023-05-21T08:54:42.966Z,34.11
2023-05-21T08:55:42.982Z,34.16
2023-05-21T08:56:42.979Z,34.16
2023-05-21T08:57:42.985Z,34.16
2023-05-21T08:58:43.001Z,34.25
2023-05-21T08:59:43.032Z,34.22
2023-05-21T09:00:43.053Z,34.21
2023-05-21T09:01:43.116Z,34.17
2023-05-21T09:02:43.165Z,34.21
2023-05-21T09:03:43.196Z,34.17
2023-05-21T09:04:43.356Z,34.18
2023-05-21T09:05:43.193Z,34.26
2023-05-21T09:06:43.170Z,34.21
2023-05-21T09:07:43.163Z,34.26
2023-05-21T09:08:43.218Z,34.29
2023-05-21T09:09:43.213Z,34.31
2023-05-21T09:10:43.215Z,34.38
2023-05-21T09:11:43.220Z,34.38
2023-05-21T09:12:43.229Z,34.39
2023-05-21T09:13:43.229Z,34.38
2023-05-21T09:14:43.210Z,34.38
2023-05-21T09:15:43.232Z,34.40
2023-05-21T09:16:43.227Z,34.45
2023-05-21T09:17:43.259Z,34.45
2023-05-21T09:18:43.237Z,34.40
2023-05-21T09:19:43.239Z,34.44
2023-05-21T09:20:43.201Z,34.48
2023-05-21T09:21:43.230Z,34.46
2023-05-21T09:22:43.232Z,34.48
2023-05-21T09:23:43.181Z,34.49
2023-05-21T09:24:43.183Z,34.54
2023-05-21T09:25:43.168Z,34.50
2023-05-21T09:26:43.157Z,34.53
2023-05-21T09:27:43.170Z,34.57
2023-05-21T09:28:43.166Z,34.54
2023-05-21T09:29:43.150Z,34.59
2023-05-21T09:30:43.156Z,34.56
2023-05-21T09:31:43.161Z,34.57
2023-05-21T09:32:43.193Z,34.61
2023-05-21T09:33:43.141Z,34.58
2023-05-21T09:34:43.144Z,34.58
2023-05-21T09:35:43.147Z,34.59
2023-05-21T09:36:43.172Z,34.62
2023-05-21T09:37:43.154Z,34.57
2023-05-21T09:38:43.151Z,34.59
2023-05-21T09:39:43.126Z,34.65
2023-05-21T09:40:43.145Z,34.61
2023-05-21T09:41:43.134Z,34.63
2023-05-21T09:42:43.120Z,34.70
2023-05-21T09:43:43.120Z,34.67
2023-05-21T09:44:43.129Z,34.66
2023-05-21T09:45:43.093Z,34.66
2023-05-21T09:46:43.173Z,34.70
2023-05-21T09:47:43.142Z,34.68
2023-05-21T09:48:43.138Z,34.68
2023-05-21T09:49:43.127Z,34.63
2023-05-21T09:50:43.092Z,34.67
2023-05-21T09:51:43.093Z,34.69
2023-05-21T09:52:43.095Z,34.71
2023-05-21T09:53:43.077Z,34.66
2023-05-21T09:54:43.092Z,34.66
2023-05-21T09:55:43.077Z,34.68
2023-05-21T09:56:43.076Z,34.68
2023-05-21T09:57:43.069Z,34.63
2023-05-21T09:58:43.061Z,34.64
2023-05-21T09:59:43.049Z,34.71
2023-05-21T10:00:43.058Z,34.67
2023-05-21T10:01:43.079Z,34.66
2023-05-21T10:02:43.128Z,34.68
2023-05-21T10:03:43.122Z,34.63
2023-05-21T10:04:43.131Z,34.64
2023-05-21T10:05:43.078Z,34.63
2023-05-21T10:06:43.059Z,34.62
2023-05-21T10:07:43.049Z,34.56
2023-05-21T10:08:43.066Z,34.55
2023-05-21T10:09:43.049Z,34.51
2023-05-21T10:10:43.054Z,34.49
2023-05-21T10:11:43.062Z,34.51
2023-05-21T10:12:43.053Z,34.59
2023-05-21T10:13:43.047Z,34.51
2023-05-21T10:14:43.055Z,34.51
2023-05-21T10:15:43.059Z,34.49
2023-05-21T10:16:43.125Z,34.54
2023-05-21T10:17:43.093Z,34.45
2023-05-21T10:18:43.110Z,34.33
2023-05-21T10:19:43.066Z,34.38
2023-05-21T10:20:43.073Z,34.54
2023-05-21T10:21:43.092Z,34.45
2023-05-21T10:22:43.066Z,34.38
2023-05-21T10:23:43.068Z,34.36
2023-05-21T10:24:43.083Z,34.33
2023-05-21T10:25:43.074Z,34.25
2023-05-21T10:26:43.083Z,34.13
2023-05-21T10:27:43.083Z,34.17
2023-05-21T10:28:43.093Z,34.21
2023-05-21T10:29:43.085Z,34.22
2023-05-21T10:30:43.090Z,34.21
2023-05-21T10:31:43.162Z,34.21
2023-05-21T10:32:43.342Z,34.17
2023-05-21T10:33:43.114Z,34.18
2023-05-21T10:34:43.109Z,34.21
2023-05-21T10:35:43.122Z,34.10
2023-05-21T10:36:43.126Z,34.09
2023-05-21T10:37:43.178Z,34.15
2023-05-21T10:38:43.143Z,34.07
2023-05-21T10:39:43.138Z,34.14
2023-05-21T10:40:43.148Z,34.09
2023-05-21T10:41:43.204Z,34.09
2023-05-21T10:42:43.181Z,34.14
2023-05-21T10:43:43.180Z,34.08
2023-05-21T10:44:43.212Z,34.06
2023-05-21T10:45:43.264Z,33.92
2023-05-21T10:46:43.216Z,33.85
2023-05-21T10:47:43.252Z,33.87
2023-05-21T10:48:43.222Z,33.89
2023-05-21T10:49:43.215Z,33.83
2023-05-21T10:50:43.234Z,33.83
2023-05-21T10:51:43.257Z,33.88
2023-05-21T10:52:43.273Z,33.88
2023-05-21T10:53:43.278Z,33.96
2023-05-21T10:54:43.288Z,34.06
2023-05-21T10:55:43.296Z,34.04
2023-05-21T10:56:43.368Z,34.06
2023-05-21T10:57:43.336Z,33.95
2023-05-21T10:58:43.337Z,33.88
2023-05-21T10:59:43.388Z,33.73
2023-05-21T11:00:43.363Z,33.75
2023-05-21T11:01:43.418Z,33.63
2023-05-21T11:02:43.461Z,33.78
2023-05-21T11:03:43.474Z,33.75
2023-05-21T11:04:43.414Z,33.64
2023-05-21T11:05:43.418Z,33.66
2023-05-21T11:06:43.461Z,33.62
2023-05-21T11:07:43.442Z,33.61
2023-05-21T11:08:43.454Z,33.62
2023-05-21T11:09:43.494Z,33.60
2023-05-21T11:10:43.490Z,33.71
2023-05-21T11:11:43.546Z,33.66
2023-05-21T11:12:43.530Z,33.55
2023-05-21T11:13:43.539Z,33.56
2023-05-21T11:14:43.590Z,33.62
2023-05-21T11:15:43.566Z,33.67
2023-05-21T11:16:43.590Z,33.56
2023-05-21T11:17:43.647Z,33.48
2023-05-21T11:18:43.706Z,33.52
2023-05-21T11:19:43.747Z,33.50
2023-05-21T11:20:43.608Z,33.46
2023-05-21T11:21:43.621Z,33.44
2023-05-21T11:22:43.636Z,33.52
2023-05-21T11:23:43.649Z,33.45
2023-05-21T11:24:43.659Z,33.47
2023-05-21T11:25:43.665Z,33.42
2023-05-21T11:26:43.688Z,33.43
2023-05-21T11:27:43.694Z,33.36
2023-05-21T11:28:43.699Z,33.16
2023-05-21T11:29:43.688Z,33.06
2023-05-21T11:30:43.891Z,33.13
2023-05-21T11:31:43.852Z,33.06
2023-05-21T11:32:43.814Z,33.09
2023-05-21T11:33:43.746Z,33.09
2023-05-21T11:34:43.737Z,33.09
2023-05-21T11:35:43.749Z,33.03
2023-05-21T11:36:43.776Z,32.89
2023-05-21T11:37:43.774Z,32.98
2023-05-21T11:38:43.770Z,32.99
2023-05-21T11:39:43.793Z,33.02
2023-05-21T11:40:43.812Z,32.86
2023-05-21T11:41:43.824Z,32.86
2023-05-21T11:42:43.821Z,32.85
2023-05-21T11:43:43.831Z,32.86
2023-05-21T11:44:43.856Z,32.89
2023-05-21T11:45:43.864Z,32.91
2023-05-21T11:46:43.938Z,32.88
2023-05-21T11:47:43.908Z,32.91
2023-05-21T11:48:43.908Z,32.73
2023-05-21T11:49:43.931Z,32.75
2023-05-21T11:50:43.934Z,32.80
2023-05-21T11:51:44.014Z,32.68
2023-05-21T11:52:43.994Z,32.59
2023-05-21T11:53:44.361Z,32.66
2023-05-21T11:54:44.015Z,32.70
2023-05-21T11:55:43.997Z,32.65
2023-05-21T11:56:44.012Z,32.63
2023-05-21T11:57:44.026Z,32.56
2023-05-21T11:58:44.040Z,32.56
2023-05-21T11:59:44.044Z,32.56
2023-05-21T12:00:44.098Z,32.59
2023-05-21T12:01:44.069Z,32.60
2023-05-21T12:02:44.167Z,32.63
2023-05-21T12:03:44.226Z,32.62
2023-05-21T12:04:44.117Z,32.59
2023-05-21T12:05:44.160Z,32.49
2023-05-21T12:06:44.155Z,32.55
2023-05-21T12:07:44.168Z,32.52
2023-05-21T12:08:44.178Z,32.52
2023-05-21T12:09:44.192Z,32.43
2023-05-21T12:10:46.120Z,32.47
2023-05-21T12:11:44.250Z,32.47
2023-05-21T12:12:54.622Z,32.51
2023-05-21T12:13:45.295Z,32.47
2023-05-21T12:14:44.241Z,32.50
2023-05-21T12:15:44.237Z,32.54
2023-05-21T12:16:44.270Z,32.58
2023-05-21T12:17:44.223Z,32.49
2023-05-21T12:18:44.248Z,32.39
2023-05-21T12:19:44.204Z,32.37
2023-05-21T12:20:44.197Z,32.37
2023-05-21T12:21:44.204Z,32.29
2023-05-21T12:22:44.192Z,32.35
2023-05-21T12:23:44.178Z,32.38
2023-05-21T12:24:44.185Z,32.46
2023-05-21T12:25:44.162Z,32.46
2023-05-21T12:26:44.175Z,32.39
2023-05-21T12:27:44.155Z,32.30
2023-05-21T12:28:44.131Z,32.35
2023-05-21T12:29:44.124Z,32.31
2023-05-21T12:30:44.125Z,32.40
2023-05-21T12:31:44.157Z,32.24
2023-05-21T12:32:44.230Z,32.21
2023-05-21T12:33:44.102Z,32.17
2023-05-21T12:34:44.098Z,32.14
2023-05-21T12:35:44.135Z,32.16
2023-05-21T12:36:44.086Z,32.17
2023-05-21T12:37:44.069Z,32.15
2023-05-21T12:38:44.071Z,32.21
2023-05-21T12:39:44.123Z,32.17
2023-05-21T12:40:44.121Z,32.11
2023-05-21T12:41:44.164Z,32.10
2023-05-21T12:42:44.155Z,32.11
2023-05-21T12:43:44.176Z,32.07
2023-05-21T12:44:44.185Z,32.10
2023-05-21T12:45:44.310Z,32.17
2023-05-21T12:46:44.290Z,32.15
2023-05-21T12:47:44.269Z,32.22
2023-05-21T12:48:44.265Z,32.27
2023-05-21T12:49:44.295Z,32.31
2023-05-21T12:50:44.309Z,32.47
2023-05-21T12:51:44.325Z,32.42
2023-05-21T12:52:44.341Z,32.37
2023-05-21T12:53:44.366Z,32.27